sensor_id;sensor_type;location;lat;lon;timestamp;P1;durP1;ratioP1;P2;durP2;ratioP2
67595;SDS011;54410;48.694;8.934;2023-11-19T00:02:10;4.17;;;3.77;;
67595;SDS011;54410;48.694;8.934;2023-11-19T00:04:37;4.10;;;3.80;;
67595;SDS011;54410;48.694;8.934;2023-11-19T00:07:06;4.40;;;4.03;;
67595;SDS011;54410;48.694;8.934;2023-11-19T00:09:33;6.40;;;4.83;;
67595;SDS011;54410;48.694;8.934;2023-11-19T00:12:01;5.72;;;4.45;;
67595;SDS011;54410;48.694;8.934;2023-11-19T00:14:27;4.63;;;4.22;;
67595;SDS011;54410;48.694;8.934;2023-11-19T00:16:54;4.80;;;4.43;;
67595;SDS011;54410;48.694;8.934;2023-11-19T00:19:20;4.75;;;4.15;;
67595;SDS011;54410;48.694;8.934;2023-11-19T00:21:46;4.65;;;4.07;;
67595;SDS011;54410;48.694;8.934;2023-11-19T00:24:12;4.15;;;3.85;;
67595;SDS011;54410;48.694;8.934;2023-11-19T00:26:41;4.10;;;3.80;;
67595;SDS011;54410;48.694;8.934;2023-11-19T00:29:07;4.03;;;3.63;;
67595;SDS011;54410;48.694;8.934;2023-11-19T00:31:33;4.22;;;3.92;;
67595;SDS011;54410;48.694;8.934;2023-11-19T00:33:58;5.93;;;4.63;;
67595;SDS011;54410;48.694;8.934;2023-11-19T00:36:24;5.70;;;4.10;;
67595;SDS011;54410;48.694;8.934;2023-11-19T00:38:51;4.53;;;3.85;;
67595;SDS011;54410;48.694;8.934;2023-11-19T00:41:20;3.97;;;3.50;;
67595;SDS011;54410;48.694;8.934;2023-11-19T00:43:47;3.50;;;3.20;;
67595;SDS011;54410;48.694;8.934;2023-11-19T00:46:14;3.97;;;3.10;;
67595;SDS011;54410;48.694;8.934;2023-11-19T00:48:40;2.85;;;2.65;;
67595;SDS011;54410;48.694;8.934;2023-11-19T00:51:06;3.13;;;2.92;;
67595;SDS011;54410;48.694;8.934;2023-11-19T00:53:32;3.83;;;3.20;;
67595;SDS011;54410;48.694;8.934;2023-11-19T00:56:01;2.90;;;2.70;;
67595;SDS011;54410;48.694;8.934;2023-11-19T00:58:27;3.08;;;2.78;;
67595;SDS011;54410;48.694;8.934;2023-11-19T01:00:54;2.90;;;2.63;;
67595;SDS011;54410;48.694;8.934;2023-11-19T01:03:22;3.05;;;2.85;;
67595;SDS011;54410;48.694;8.934;2023-11-19T01:05:48;4.35;;;3.45;;
67595;SDS011;54410;48.694;8.934;2023-11-19T01:08:14;3.15;;;2.90;;
67595;SDS011;54410;48.694;8.934;2023-11-19T01:10:41;2.88;;;2.63;;
67595;SDS011;54410;48.694;8.934;2023-11-19T01:13:07;3.15;;;2.88;;
67595;SDS011;54410;48.694;8.934;2023-11-19T01:15:33;2.20;;;2.10;;
67595;SDS011;54410;48.694;8.934;2023-11-19T01:17:59;2.15;;;2.05;;
67595;SDS011;54410;48.694;8.934;2023-11-19T01:20:27;1.95;;;1.85;;
67595;SDS011;54410;48.694;8.934;2023-11-19T01:22:53;1.80;;;1.70;;
67595;SDS011;54410;48.694;8.934;2023-11-19T01:25:18;1.70;;;1.60;;
67595;SDS011;54410;48.694;8.934;2023-11-19T01:27:44;1.50;;;1.50;;
67595;SDS011;54410;48.694;8.934;2023-11-19T01:30:11;1.88;;;1.70;;
67595;SDS011;54410;48.694;8.934;2023-11-19T01:32:40;1.70;;;1.60;;
67595;SDS011;54410;48.694;8.934;2023-11-19T01:35:05;1.88;;;1.77;;
67595;SDS011;54410;48.694;8.934;2023-11-19T01:37:33;1.40;;;1.40;;
67595;SDS011;54410;48.694;8.934;2023-11-19T01:39:59;1.60;;;1.60;;
67595;SDS011;54410;48.694;8.934;2023-11-19T01:42:25;1.75;;;1.65;;
67595;SDS011;54410;48.694;8.934;2023-11-19T01:44:58;1.30;;;1.30;;
67595;SDS011;54410;48.694;8.934;2023-11-19T01:47:27;1.50;;;1.50;;
67595;SDS011;54410;48.694;8.934;2023-11-19T01:49:53;1.30;;;1.30;;
67595;SDS011;54410;48.694;8.934;2023-11-19T01:52:20;1.30;;;1.30;;
67595;SDS011;54410;48.694;8.934;2023-11-19T01:54:46;1.80;;;1.73;;
67595;SDS011;54410;48.694;8.934;2023-11-19T01:57:12;1.40;;;1.40;;
67595;SDS011;54410;48.694;8.934;2023-11-19T01:59:39;1.27;;;1.27;;
67595;SDS011;54410;48.694;8.934;2023-11-19T02:02:05;1.33;;;1.33;;
67595;SDS011;54410;48.694;8.934;2023-11-19T02:04:31;1.40;;;1.40;;
67595;SDS011;54410;48.694;8.934;2023-11-19T02:06:57;1.20;;;1.20;;
67595;SDS011;54410;48.694;8.934;2023-11-19T02:09:24;1.30;;;1.20;;
67595;SDS011;54410;48.694;8.934;2023-11-19T02:11:49;1.30;;;1.30;;
67595;SDS011;54410;48.694;8.934;2023-11-19T02:14:17;1.30;;;1.30;;
67595;SDS011;54410;48.694;8.934;2023-11-19T02:16:43;1.30;;;1.30;;
67595;SDS011;54410;48.694;8.934;2023-11-19T02:19:09;1.33;;;1.33;;
67595;SDS011;54410;48.694;8.934;2023-11-19T02:21:36;1.30;;;1.30;;
67595;SDS011;54410;48.694;8.934;2023-11-19T02:24:03;1.38;;;1.20;;
67595;SDS011;54410;48.694;8.934;2023-11-19T02:29:14;1.30;;;1.30;;
67595;SDS011;54410;48.694;8.934;2023-11-19T02:31:40;1.30;;;1.30;;
67595;SDS011;54410;48.694;8.934;2023-11-19T02:34:06;1.42;;;1.40;;
67595;SDS011;54410;48.694;8.934;2023-11-19T02:36:32;1.35;;;1.35;;
67595;SDS011;54410;48.694;8.934;2023-11-19T02:38:57;1.40;;;1.40;;
67595;SDS011;54410;48.694;8.934;2023-11-19T02:41:23;1.40;;;1.40;;
67595;SDS011;54410;48.694;8.934;2023-11-19T02:43:49;1.23;;;1.23;;
67595;SDS011;54410;48.694;8.934;2023-11-19T02:46:15;1.27;;;1.25;;
67595;SDS011;54410;48.694;8.934;2023-11-19T02:48:42;1.35;;;1.30;;
67595;SDS011;54410;48.694;8.934;2023-11-19T02:51:09;1.60;;;1.50;;
67595;SDS011;54410;48.694;8.934;2023-11-19T02:53:35;1.88;;;1.52;;
67595;SDS011;54410;48.694;8.934;2023-11-19T02:56:05;1.50;;;1.40;;
67595;SDS011;54410;48.694;8.934;2023-11-19T02:58:43;1.40;;;1.30;;
67595;SDS011;54410;48.694;8.934;2023-11-19T03:01:10;1.27;;;1.27;;
67595;SDS011;54410;48.694;8.934;2023-11-19T03:03:44;1.63;;;1.52;;
67595;SDS011;54410;48.694;8.934;2023-11-19T03:06:10;1.45;;;1.35;;
67595;SDS011;54410;48.694;8.934;2023-11-19T03:08:36;2.78;;;1.20;;
67595;SDS011;54410;48.694;8.934;2023-11-19T03:11:02;1.27;;;1.27;;
67595;SDS011;54410;48.694;8.934;2023-11-19T03:13:29;1.20;;;1.20;;
67595;SDS011;54410;48.694;8.934;2023-11-19T03:15:55;1.40;;;1.40;;
67595;SDS011;54410;48.694;8.934;2023-11-19T03:18:21;1.30;;;1.30;;
67595;SDS011;54410;48.694;8.934;2023-11-19T03:20:47;1.30;;;1.30;;
67595;SDS011;54410;48.694;8.934;2023-11-19T03:23:14;2.17;;;1.27;;
67595;SDS011;54410;48.694;8.934;2023-11-19T03:25:40;1.33;;;1.33;;
67595;SDS011;54410;48.694;8.934;2023-11-19T03:28:06;1.33;;;1.33;;
67595;SDS011;54410;48.694;8.934;2023-11-19T03:30:32;1.40;;;1.40;;
67595;SDS011;54410;48.694;8.934;2023-11-19T03:32:58;1.38;;;1.38;;
67595;SDS011;54410;48.694;8.934;2023-11-19T03:35:27;1.40;;;1.40;;
67595;SDS011;54410;48.694;8.934;2023-11-19T03:37:53;1.77;;;1.67;;
67595;SDS011;54410;48.694;8.934;2023-11-19T03:40:19;1.38;;;1.38;;
67595;SDS011;54410;48.694;8.934;2023-11-19T03:42:46;1.55;;;1.40;;
67595;SDS011;54410;48.694;8.934;2023-11-19T03:45:12;2.35;;;1.40;;
67595;SDS011;54410;48.694;8.934;2023-11-19T03:47:38;1.30;;;1.30;;
67595;SDS011;54410;48.694;8.934;2023-11-19T03:50:04;1.30;;;1.30;;
67595;SDS011;54410;48.694;8.934;2023-11-19T03:52:31;1.40;;;1.40;;
67595;SDS011;54410;48.694;8.934;2023-11-19T03:54:57;1.30;;;1.30;;
67595;SDS011;54410;48.694;8.934;2023-11-19T03:57:23;1.30;;;1.30;;
67595;SDS011;54410;48.694;8.934;2023-11-19T03:59:49;1.35;;;1.35;;
67595;SDS011;54410;48.694;8.934;2023-11-19T04:02:15;1.42;;;1.40;;
67595;SDS011;54410;48.694;8.934;2023-11-19T04:04:42;1.30;;;1.30;;
67595;SDS011;54410;48.694;8.934;2023-11-19T04:07:08;2.17;;;1.38;;
67595;SDS011;54410;48.694;8.934;2023-11-19T04:09:34;1.30;;;1.30;;
67595;SDS011;54410;48.694;8.934;2023-11-19T04:12:00;1.20;;;1.20;;
67595;SDS011;54410;48.694;8.934;2023-11-19T04:14:26;1.20;;;1.20;;
67595;SDS011;54410;48.694;8.934;2023-11-19T04:16:53;4.75;;;1.33;;
67595;SDS011;54410;48.694;8.934;2023-11-19T04:19:19;1.13;;;1.13;;
67595;SDS011;54410;48.694;8.934;2023-11-19T04:21:45;1.10;;;1.10;;
67595;SDS011;54410;48.694;8.934;2023-11-19T04:24:11;1.10;;;1.10;;
67595;SDS011;54410;48.694;8.934;2023-11-19T04:26:41;1.45;;;1.40;;
67595;SDS011;54410;48.694;8.934;2023-11-19T04:29:11;1.30;;;1.30;;
67595;SDS011;54410;48.694;8.934;2023-11-19T04:31:37;1.77;;;1.40;;
67595;SDS011;54410;48.694;8.934;2023-11-19T04:34:03;1.30;;;1.30;;
67595;SDS011;54410;48.694;8.934;2023-11-19T04:36:29;1.35;;;1.20;;
67595;SDS011;54410;48.694;8.934;2023-11-19T04:38:55;1.30;;;1.30;;
67595;SDS011;54410;48.694;8.934;2023-11-19T04:41:21;1.20;;;1.20;;
67595;SDS011;54410;48.694;8.934;2023-11-19T04:43:47;1.50;;;1.20;;
67595;SDS011;54410;48.694;8.934;2023-11-19T04:46:13;1.25;;;1.25;;
67595;SDS011;54410;48.694;8.934;2023-11-19T04:48:39;1.40;;;1.40;;
67595;SDS011;54410;48.694;8.934;2023-11-19T04:51:05;1.25;;;1.25;;
67595;SDS011;54410;48.694;8.934;2023-11-19T04:53:31;1.20;;;1.20;;
67595;SDS011;54410;48.694;8.934;2023-11-19T04:55:57;1.30;;;1.30;;
67595;SDS011;54410;48.694;8.934;2023-11-19T04:58:24;1.33;;;1.33;;
67595;SDS011;54410;48.694;8.934;2023-11-19T05:00:50;1.23;;;1.23;;
67595;SDS011;54410;48.694;8.934;2023-11-19T05:03:16;1.40;;;1.40;;
67595;SDS011;54410;48.694;8.934;2023-11-19T05:05:42;1.20;;;1.20;;
67595;SDS011;54410;48.694;8.934;2023-11-19T05:08:08;1.20;;;1.20;;
67595;SDS011;54410;48.694;8.934;2023-11-19T05:10:34;1.50;;;1.40;;
67595;SDS011;54410;48.694;8.934;2023-11-19T05:13:01;1.33;;;1.33;;
67595;SDS011;54410;48.694;8.934;2023-11-19T05:15:27;1.48;;;1.30;;
67595;SDS011;54410;48.694;8.934;2023-11-19T05:17:53;1.40;;;1.40;;
67595;SDS011;54410;48.694;8.934;2023-11-19T05:20:19;1.23;;;1.23;;
67595;SDS011;54410;48.694;8.934;2023-11-19T05:22:45;1.20;;;1.20;;
67595;SDS011;54410;48.694;8.934;2023-11-19T05:25:11;1.20;;;1.20;;
67595;SDS011;54410;48.694;8.934;2023-11-19T05:27:37;1.20;;;1.20;;
67595;SDS011;54410;48.694;8.934;2023-11-19T05:30:04;1.20;;;1.20;;
67595;SDS011;54410;48.694;8.934;2023-11-19T05:32:32;1.30;;;1.30;;
67595;SDS011;54410;48.694;8.934;2023-11-19T05:34:58;1.20;;;1.20;;
67595;SDS011;54410;48.694;8.934;2023-11-19T05:37:24;1.40;;;1.30;;
67595;SDS011;54410;48.694;8.934;2023-11-19T05:39:50;1.30;;;1.30;;
67595;SDS011;54410;48.694;8.934;2023-11-19T05:42:16;1.30;;;1.30;;
67595;SDS011;54410;48.694;8.934;2023-11-19T05:44:42;1.40;;;1.40;;
67595;SDS011;54410;48.694;8.934;2023-11-19T05:47:07;1.25;;;1.23;;
67595;SDS011;54410;48.694;8.934;2023-11-19T05:49:33;1.20;;;1.20;;
67595;SDS011;54410;48.694;8.934;2023-11-19T05:52:00;1.40;;;1.40;;
67595;SDS011;54410;48.694;8.934;2023-11-19T05:54:28;1.35;;;1.35;;
67595;SDS011;54410;48.694;8.934;2023-11-19T05:56:54;1.38;;;1.30;;
67595;SDS011;54410;48.694;8.934;2023-11-19T05:59:20;1.77;;;1.67;;
67595;SDS011;54410;48.694;8.934;2023-11-19T06:01:47;3.70;;;3.40;;
67595;SDS011;54410;48.694;8.934;2023-11-19T06:04:13;2.45;;;2.35;;
67595;SDS011;54410;48.694;8.934;2023-11-19T06:06:39;2.80;;;2.65;;
67595;SDS011;54410;48.694;8.934;2023-11-19T06:09:05;2.42;;;2.30;;
67595;SDS011;54410;48.694;8.934;2023-11-19T06:11:34;2.22;;;2.13;;
67595;SDS011;54410;48.694;8.934;2023-11-19T06:14:01;2.63;;;1.55;;
67595;SDS011;54410;48.694;8.934;2023-11-19T06:16:28;1.42;;;1.42;;
67595;SDS011;54410;48.694;8.934;2023-11-19T06:18:54;1.40;;;1.40;;
67595;SDS011;54410;48.694;8.934;2023-11-19T06:21:20;1.52;;;1.42;;
67595;SDS011;54410;48.694;8.934;2023-11-19T06:23:46;1.27;;;1.27;;
67595;SDS011;54410;48.694;8.934;2023-11-19T06:26:12;1.67;;;1.58;;
67595;SDS011;54410;48.694;8.934;2023-11-19T06:28:39;1.70;;;1.60;;
67595;SDS011;54410;48.694;8.934;2023-11-19T06:31:04;1.45;;;1.45;;
67595;SDS011;54410;48.694;8.934;2023-11-19T06:33:30;1.40;;;1.40;;
67595;SDS011;54410;48.694;8.934;2023-11-19T06:35:56;1.65;;;1.55;;
67595;SDS011;54410;48.694;8.934;2023-11-19T06:38:22;1.20;;;1.20;;
67595;SDS011;54410;48.694;8.934;2023-11-19T06:40:48;1.23;;;1.23;;
67595;SDS011;54410;48.694;8.934;2023-11-19T06:43:14;1.30;;;1.30;;
67595;SDS011;54410;48.694;8.934;2023-11-19T06:45:40;1.55;;;1.20;;
67595;SDS011;54410;48.694;8.934;2023-11-19T06:48:06;1.60;;;1.50;;
67595;SDS011;54410;48.694;8.934;2023-11-19T06:50:32;1.30;;;1.30;;
67595;SDS011;54410;48.694;8.934;2023-11-19T06:52:59;1.60;;;1.50;;
67595;SDS011;54410;48.694;8.934;2023-11-19T06:55:26;1.50;;;1.40;;
67595;SDS011;54410;48.694;8.934;2023-11-19T06:57:51;1.60;;;1.60;;
67595;SDS011;54410;48.694;8.934;2023-11-19T07:00:17;1.80;;;1.70;;
67595;SDS011;54410;48.694;8.934;2023-11-19T07:02:43;1.70;;;1.60;;
67595;SDS011;54410;48.694;8.934;2023-11-19T07:05:09;2.78;;;1.77;;
67595;SDS011;54410;48.694;8.934;2023-11-19T07:07:38;1.50;;;1.50;;
67595;SDS011;54410;48.694;8.934;2023-11-19T07:10:05;1.55;;;1.50;;
67595;SDS011;54410;48.694;8.934;2023-11-19T07:12:33;1.70;;;1.60;;
67595;SDS011;54410;48.694;8.934;2023-11-19T07:15:00;2.03;;;1.70;;
67595;SDS011;54410;48.694;8.934;2023-11-19T07:17:27;1.90;;;1.80;;
67595;SDS011;54410;48.694;8.934;2023-11-19T07:19:53;1.98;;;1.88;;
67595;SDS011;54410;48.694;8.934;2023-11-19T07:22:19;1.80;;;1.70;;
67595;SDS011;54410;48.694;8.934;2023-11-19T07:24:45;1.80;;;1.70;;
67595;SDS011;54410;48.694;8.934;2023-11-19T07:27:11;2.05;;;1.95;;
67595;SDS011;54410;48.694;8.934;2023-11-19T07:29:37;2.22;;;1.73;;
67595;SDS011;54410;48.694;8.934;2023-11-19T07:32:03;2.05;;;1.95;;
67595;SDS011;54410;48.694;8.934;2023-11-19T07:34:30;2.08;;;1.83;;
67595;SDS011;54410;48.694;8.934;2023-11-19T07:36:56;2.55;;;1.90;;
67595;SDS011;54410;48.694;8.934;2023-11-19T07:39:27;1.83;;;1.73;;
67595;SDS011;54410;48.694;8.934;2023-11-19T07:41:53;2.75;;;1.90;;
67595;SDS011;54410;48.694;8.934;2023-11-19T07:44:19;1.83;;;1.73;;
67595;SDS011;54410;48.694;8.934;2023-11-19T07:46:46;2.17;;;1.70;;
67595;SDS011;54410;48.694;8.934;2023-11-19T07:49:13;1.67;;;1.58;;
67595;SDS011;54410;48.694;8.934;2023-11-19T07:51:39;3.60;;;1.55;;
67595;SDS011;54410;48.694;8.934;2023-11-19T07:54:05;1.75;;;1.73;;
67595;SDS011;54410;48.694;8.934;2023-11-19T07:56:34;1.88;;;1.77;;
67595;SDS011;54410;48.694;8.934;2023-11-19T07:59:00;1.98;;;1.88;;
67595;SDS011;54410;48.694;8.934;2023-11-19T08:01:26;1.80;;;1.70;;
67595;SDS011;54410;48.694;8.934;2023-11-19T08:03:52;2.20;;;2.00;;
67595;SDS011;54410;48.694;8.934;2023-11-19T08:06:18;2.45;;;2.28;;
67595;SDS011;54410;48.694;8.934;2023-11-19T08:08:44;2.08;;;1.95;;
67595;SDS011;54410;48.694;8.934;2023-11-19T08:11:10;2.33;;;2.17;;
67595;SDS011;54410;48.694;8.934;2023-11-19T08:13:36;2.60;;;2.40;;
67595;SDS011;54410;48.694;8.934;2023-11-19T08:16:02;2.33;;;2.22;;
67595;SDS011;54410;48.694;8.934;2023-11-19T08:18:28;3.15;;;2.40;;
67595;SDS011;54410;48.694;8.934;2023-11-19T08:20:54;2.67;;;2.47;;
67595;SDS011;54410;48.694;8.934;2023-11-19T08:23:22;2.95;;;2.45;;
67595;SDS011;54410;48.694;8.934;2023-11-19T08:25:50;3.70;;;3.40;;
67595;SDS011;54410;48.694;8.934;2023-11-19T08:28:16;4.28;;;3.88;;
67595;SDS011;54410;48.694;8.934;2023-11-19T08:30:42;4.20;;;3.60;;
67595;SDS011;54410;48.694;8.934;2023-11-19T08:33:09;3.22;;;2.92;;
67595;SDS011;54410;48.694;8.934;2023-11-19T08:35:35;2.72;;;2.50;;
67595;SDS011;54410;48.694;8.934;2023-11-19T08:38:01;9.40;;;7.38;;
67595;SDS011;54410;48.694;8.934;2023-11-19T08:40:27;2.85;;;2.60;;
67595;SDS011;54410;48.694;8.934;2023-11-19T08:42:54;3.25;;;2.95;;
67595;SDS011;54410;48.694;8.934;2023-11-19T08:45:21;2.50;;;2.28;;
67595;SDS011;54410;48.694;8.934;2023-11-19T08:47:46;2.90;;;2.58;;
67595;SDS011;54410;48.694;8.934;2023-11-19T08:50:12;2.50;;;2.30;;
67595;SDS011;54410;48.694;8.934;2023-11-19T08:52:38;2.90;;;2.60;;
67595;SDS011;54410;48.694;8.934;2023-11-19T08:55:04;4.43;;;2.45;;
67595;SDS011;54410;48.694;8.934;2023-11-19T08:57:33;3.30;;;2.92;;
67595;SDS011;54410;48.694;8.934;2023-11-19T08:59:58;2.58;;;2.38;;
67595;SDS011;54410;48.694;8.934;2023-11-19T09:02:24;3.05;;;1.90;;
67595;SDS011;54410;48.694;8.934;2023-11-19T09:04:50;2.45;;;2.35;;
67595;SDS011;54410;48.694;8.934;2023-11-19T09:07:16;2.05;;;1.95;;
67595;SDS011;54410;48.694;8.934;2023-11-19T09:09:42;1.90;;;1.80;;
67595;SDS011;54410;48.694;8.934;2023-11-19T09:12:08;1.83;;;1.80;;
67595;SDS011;54410;48.694;8.934;2023-11-19T09:14:34;1.75;;;1.65;;
67595;SDS011;54410;48.694;8.934;2023-11-19T09:17:00;2.90;;;1.70;;
67595;SDS011;54410;48.694;8.934;2023-11-19T09:19:26;1.67;;;1.58;;
67595;SDS011;54410;48.694;8.934;2023-11-19T09:21:52;4.28;;;3.65;;
67595;SDS011;54410;48.694;8.934;2023-11-19T09:24:18;4.25;;;2.70;;
67595;SDS011;54410;48.694;8.934;2023-11-19T09:26:44;3.90;;;2.85;;
67595;SDS011;54410;48.694;8.934;2023-11-19T09:29:11;3.70;;;1.90;;
67595;SDS011;54410;48.694;8.934;2023-11-19T09:31:39;1.23;;;1.17;;
67595;SDS011;54410;48.694;8.934;2023-11-19T09:34:05;1.40;;;1.30;;
67595;SDS011;54410;48.694;8.934;2023-11-19T09:36:31;1.40;;;1.40;;
67595;SDS011;54410;48.694;8.934;2023-11-19T09:38:57;1.20;;;1.20;;
67595;SDS011;54410;48.694;8.934;2023-11-19T09:41:25;1.52;;;1.38;;
67595;SDS011;54410;48.694;8.934;2023-11-19T09:43:52;1.40;;;1.30;;
67595;SDS011;54410;48.694;8.934;2023-11-19T09:46:18;1.88;;;1.40;;
67595;SDS011;54410;48.694;8.934;2023-11-19T09:48:45;1.40;;;1.30;;
67595;SDS011;54410;48.694;8.934;2023-11-19T09:51:13;3.17;;;1.42;;
67595;SDS011;54410;48.694;8.934;2023-11-19T09:53:39;1.48;;;1.35;;
67595;SDS011;54410;48.694;8.934;2023-11-19T09:56:05;1.42;;;1.33;;
67595;SDS011;54410;48.694;8.934;2023-11-19T09:58:32;2.17;;;1.38;;
67595;SDS011;54410;48.694;8.934;2023-11-19T10:00:59;1.30;;;1.20;;
67595;SDS011;54410;48.694;8.934;2023-11-19T10:03:26;1.85;;;1.75;;
67595;SDS011;54410;48.694;8.934;2023-11-19T10:05:53;1.67;;;1.65;;
67595;SDS011;54410;48.694;8.934;2023-11-19T10:08:21;1.70;;;1.58;;
67595;SDS011;54410;48.694;8.934;2023-11-19T10:10:47;1.33;;;1.33;;
67595;SDS011;54410;48.694;8.934;2023-11-19T10:13:13;1.50;;;1.40;;
67595;SDS011;54410;48.694;8.934;2023-11-19T10:15:41;1.65;;;1.40;;
67595;SDS011;54410;48.694;8.934;2023-11-19T10:18:07;1.35;;;1.35;;
67595;SDS011;54410;48.694;8.934;2023-11-19T10:20:36;1.27;;;1.27;;
67595;SDS011;54410;48.694;8.934;2023-11-19T10:23:02;1.50;;;1.40;;
67595;SDS011;54410;48.694;8.934;2023-11-19T10:25:28;1.50;;;1.40;;
67595;SDS011;54410;48.694;8.934;2023-11-19T10:27:54;1.63;;;1.40;;
67595;SDS011;54410;48.694;8.934;2023-11-19T10:30:21;1.88;;;1.77;;
67595;SDS011;54410;48.694;8.934;2023-11-19T10:33:03;2.67;;;1.55;;
67595;SDS011;54410;48.694;8.934;2023-11-19T10:35:31;2.95;;;1.52;;
67595;SDS011;54410;48.694;8.934;2023-11-19T10:38:20;1.60;;;1.50;;
67595;SDS011;54410;48.694;8.934;2023-11-19T10:40:49;4.18;;;2.63;;
67595;SDS011;54410;48.694;8.934;2023-11-19T10:43:15;1.52;;;1.42;;
67595;SDS011;54410;48.694;8.934;2023-11-19T10:45:44;1.92;;;1.80;;
67595;SDS011;54410;48.694;8.934;2023-11-19T10:48:10;2.55;;;2.22;;
67595;SDS011;54410;48.694;8.934;2023-11-19T10:50:38;2.67;;;2.15;;
67595;SDS011;54410;48.694;8.934;2023-11-19T10:53:04;1.45;;;1.40;;
67595;SDS011;54410;48.694;8.934;2023-11-19T10:55:34;1.50;;;1.50;;
67595;SDS011;54410;48.694;8.934;2023-11-19T11:00:30;1.10;;;1.10;;
67595;SDS011;54410;48.694;8.934;2023-11-19T11:03:00;3.38;;;1.63;;
67595;SDS011;54410;48.694;8.934;2023-11-19T11:05:26;3.28;;;2.00;;
67595;SDS011;54410;48.694;8.934;2023-11-19T11:07:52;1.60;;;1.50;;
67595;SDS011;54410;48.694;8.934;2023-11-19T11:10:22;3.17;;;1.67;;
67595;SDS011;54410;48.694;8.934;2023-11-19T11:12:51;1.85;;;1.40;;
67595;SDS011;54410;48.694;8.934;2023-11-19T11:15:24;1.65;;;1.55;;
67595;SDS011;54410;48.694;8.934;2023-11-19T11:17:54;1.70;;;1.60;;
67595;SDS011;54410;48.694;8.934;2023-11-19T11:20:23;1.88;;;1.67;;
67595;SDS011;54410;48.694;8.934;2023-11-19T11:28:13;1.60;;;1.60;;
67595;SDS011;54410;48.694;8.934;2023-11-19T11:30:52;2.75;;;1.65;;
67595;SDS011;54410;48.694;8.934;2023-11-19T11:36:11;2.75;;;1.33;;
67595;SDS011;54410;48.694;8.934;2023-11-19T11:38:39;2.67;;;1.63;;
67595;SDS011;54410;48.694;8.934;2023-11-19T11:43:51;2.65;;;1.70;;
67595;SDS011;54410;48.694;8.934;2023-11-19T11:49:02;2.05;;;1.50;;
67595;SDS011;54410;48.694;8.934;2023-11-19T11:54:09;1.60;;;1.50;;
67595;SDS011;54410;48.694;8.934;2023-11-19T11:56:39;1.73;;;1.67;;
67595;SDS011;54410;48.694;8.934;2023-11-19T11:59:08;1.70;;;1.50;;
67595;SDS011;54410;48.694;8.934;2023-11-19T12:01:34;1.88;;;1.48;;
67595;SDS011;54410;48.694;8.934;2023-11-19T12:04:00;1.63;;;1.45;;
67595;SDS011;54410;48.694;8.934;2023-11-19T12:06:27;1.40;;;1.40;;
67595;SDS011;54410;48.694;8.934;2023-11-19T12:08:57;1.35;;;1.33;;
67595;SDS011;54410;48.694;8.934;2023-11-19T12:11:24;3.13;;;1.40;;
67595;SDS011;54410;48.694;8.934;2023-11-19T12:13:55;1.33;;;1.33;;
67595;SDS011;54410;48.694;8.934;2023-11-19T12:16:24;1.77;;;1.67;;
67595;SDS011;54410;48.694;8.934;2023-11-19T12:18:52;2.42;;;1.58;;
67595;SDS011;54410;48.694;8.934;2023-11-19T12:21:28;1.60;;;1.50;;
67595;SDS011;54410;48.694;8.934;2023-11-19T12:23:55;1.60;;;1.50;;
67595;SDS011;54410;48.694;8.934;2023-11-19T12:26:30;1.67;;;1.58;;
67595;SDS011;54410;48.694;8.934;2023-11-19T12:29:00;2.20;;;1.60;;
67595;SDS011;54410;48.694;8.934;2023-11-19T12:31:28;1.67;;;1.58;;
67595;SDS011;54410;48.694;8.934;2023-11-19T12:33:55;2.50;;;2.33;;
67595;SDS011;54410;48.694;8.934;2023-11-19T12:36:21;2.38;;;1.55;;
67595;SDS011;54410;48.694;8.934;2023-11-19T12:38:47;1.60;;;1.50;;
67595;SDS011;54410;48.694;8.934;2023-11-19T12:41:14;1.65;;;1.40;;
67595;SDS011;54410;48.694;8.934;2023-11-19T12:43:45;2.13;;;1.90;;
67595;SDS011;54410;48.694;8.934;2023-11-19T12:46:20;2.05;;;1.40;;
67595;SDS011;54410;48.694;8.934;2023-11-19T12:48:47;1.90;;;1.80;;
67595;SDS011;54410;48.694;8.934;2023-11-19T12:51:13;2.38;;;1.70;;
67595;SDS011;54410;48.694;8.934;2023-11-19T12:53:49;2.20;;;2.08;;
67595;SDS011;54410;48.694;8.934;2023-11-19T12:56:17;1.45;;;1.45;;
67595;SDS011;54410;48.694;8.934;2023-11-19T12:58:43;1.75;;;1.60;;
67595;SDS011;54410;48.694;8.934;2023-11-19T13:01:09;1.70;;;1.60;;
67595;SDS011;54410;48.694;8.934;2023-11-19T13:03:38;1.98;;;1.52;;
67595;SDS011;54410;48.694;8.934;2023-11-19T13:06:04;2.25;;;1.50;;
67595;SDS011;54410;48.694;8.934;2023-11-19T13:08:39;1.65;;;1.55;;
67595;SDS011;54410;48.694;8.934;2023-11-19T13:11:05;1.52;;;1.42;;
67595;SDS011;54410;48.694;8.934;2023-11-19T13:13:33;1.85;;;1.70;;
67595;SDS011;54410;48.694;8.934;2023-11-19T13:16:04;2.40;;;1.48;;
67595;SDS011;54410;48.694;8.934;2023-11-19T13:18:34;1.55;;;1.45;;
67595;SDS011;54410;48.694;8.934;2023-11-19T13:21:00;2.00;;;1.50;;
67595;SDS011;54410;48.694;8.934;2023-11-19T13:23:26;2.50;;;1.48;;
67595;SDS011;54410;48.694;8.934;2023-11-19T13:25:52;2.03;;;1.92;;
67595;SDS011;54410;48.694;8.934;2023-11-19T13:28:18;1.60;;;1.60;;
67595;SDS011;54410;48.694;8.934;2023-11-19T13:30:44;2.13;;;1.60;;
67595;SDS011;54410;48.694;8.934;2023-11-19T13:33:10;1.55;;;1.45;;
67595;SDS011;54410;48.694;8.934;2023-11-19T13:35:37;1.63;;;1.52;;
67595;SDS011;54410;48.694;8.934;2023-11-19T13:38:05;1.73;;;1.67;;
67595;SDS011;54410;48.694;8.934;2023-11-19T13:40:33;1.75;;;1.65;;
67595;SDS011;54410;48.694;8.934;2023-11-19T13:42:59;1.58;;;1.48;;
67595;SDS011;54410;48.694;8.934;2023-11-19T13:45:25;3.03;;;1.80;;
67595;SDS011;54410;48.694;8.934;2023-11-19T13:47:51;2.70;;;1.50;;
67595;SDS011;54410;48.694;8.934;2023-11-19T13:50:17;1.70;;;1.60;;
67595;SDS011;54410;48.694;8.934;2023-11-19T13:52:44;1.50;;;1.40;;
67595;SDS011;54410;48.694;8.934;2023-11-19T13:55:11;1.83;;;1.73;;
67595;SDS011;54410;48.694;8.934;2023-11-19T13:57:41;1.70;;;1.60;;
67595;SDS011;54410;48.694;8.934;2023-11-19T14:00:08;2.13;;;1.45;;
67595;SDS011;54410;48.694;8.934;2023-11-19T14:02:44;2.28;;;2.05;;
67595;SDS011;54410;48.694;8.934;2023-11-19T14:05:11;1.50;;;1.42;;
67595;SDS011;54410;48.694;8.934;2023-11-19T14:07:38;2.00;;;1.83;;
67595;SDS011;54410;48.694;8.934;2023-11-19T14:10:03;1.88;;;1.77;;
67595;SDS011;54410;48.694;8.934;2023-11-19T14:12:31;4.10;;;1.80;;
67595;SDS011;54410;48.694;8.934;2023-11-19T14:14:57;1.80;;;1.70;;
67595;SDS011;54410;48.694;8.934;2023-11-19T14:17:23;1.65;;;1.65;;
67595;SDS011;54410;48.694;8.934;2023-11-19T14:19:50;1.60;;;1.50;;
67595;SDS011;54410;48.694;8.934;2023-11-19T14:22:16;1.95;;;1.85;;
67595;SDS011;54410;48.694;8.934;2023-11-19T14:24:42;1.80;;;1.70;;
67595;SDS011;54410;48.694;8.934;2023-11-19T14:27:08;1.65;;;1.60;;
67595;SDS011;54410;48.694;8.934;2023-11-19T14:29:35;1.60;;;1.50;;
67595;SDS011;54410;48.694;8.934;2023-11-19T14:32:01;1.63;;;1.50;;
67595;SDS011;54410;48.694;8.934;2023-11-19T14:34:28;1.67;;;1.58;;
67595;SDS011;54410;48.694;8.934;2023-11-19T14:36:54;1.63;;;1.55;;
67595;SDS011;54410;48.694;8.934;2023-11-19T14:39:20;1.95;;;1.83;;
67595;SDS011;54410;48.694;8.934;2023-11-19T14:41:46;1.73;;;1.63;;
67595;SDS011;54410;48.694;8.934;2023-11-19T14:44:12;2.03;;;1.77;;
67595;SDS011;54410;48.694;8.934;2023-11-19T14:46:38;1.73;;;1.63;;
67595;SDS011;54410;48.694;8.934;2023-11-19T14:49:04;1.80;;;1.70;;
67595;SDS011;54410;48.694;8.934;2023-11-19T14:51:30;1.73;;;1.63;;
67595;SDS011;54410;48.694;8.934;2023-11-19T14:53:57;1.83;;;1.73;;
67595;SDS011;54410;48.694;8.934;2023-11-19T14:56:23;2.00;;;1.90;;
67595;SDS011;54410;48.694;8.934;2023-11-19T14:58:49;1.90;;;1.60;;
67595;SDS011;54410;48.694;8.934;2023-11-19T15:01:16;1.88;;;1.77;;
67595;SDS011;54410;48.694;8.934;2023-11-19T15:03:41;1.98;;;1.80;;
67595;SDS011;54410;48.694;8.934;2023-11-19T15:06:07;1.80;;;1.70;;
67595;SDS011;54410;48.694;8.934;2023-11-19T15:08:34;1.65;;;1.52;;